sensor_id;sensor_type;location;lat;lon;timestamp;temperature;humidity
2300;DHT22;1158;48.750;9.078;2023-03-01T00:00:02;-5.00;99.90
2300;DHT22;1158;48.750;9.078;2023-03-01T00:02:29;-5.10;99.90
2300;DHT22;1158;48.750;9.078;2023-03-01T00:04:56;-5.20;99.90
2300;DHT22;1158;48.750;9.078;2023-03-01T00:07:23;-5.20;99.90
2300;DHT22;1158;48.750;9.078;2023-03-01T00:09:51;-5.10;99.90
2300;DHT22;1158;48.750;9.078;2023-03-01T00:12:17;-5.20;99.90
2300;DHT22;1158;48.750;9.078;2023-03-01T00:14:44;-5.20;99.90
2300;DHT22;1158;48.750;9.078;2023-03-01T00:17:11;-5.20;99.90
2300;DHT22;1158;48.750;9.078;2023-03-01T00:19:37;-5.20;99.90
2300;DHT22;1158;48.750;9.078;2023-03-01T00:22:04;-5.20;99.90
2300;DHT22;1158;48.750;9.078;2023-03-01T00:24:31;-5.20;99.90
2300;DHT22;1158;48.750;9.078;2023-03-01T00:26:59;-5.30;99.90
2300;DHT22;1158;48.750;9.078;2023-03-01T00:29:26;-5.30;99.90
2300;DHT22;1158;48.750;9.078;2023-03-01T00:31:52;-5.30;99.90
2300;DHT22;1158;48.750;9.078;2023-03-01T00:34:19;-5.30;99.90
2300;DHT22;1158;48.750;9.078;2023-03-01T00:36:46;-5.40;99.90
2300;DHT22;1158;48.750;9.078;2023-03-01T00:39:14;-5.50;99.90
2300;DHT22;1158;48.750;9.078;2023-03-01T00:41:41;-5.50;99.90
2300;DHT22;1158;48.750;9.078;2023-03-01T00:44:10;-5.50;99.90
2300;DHT22;1158;48.750;9.078;2023-03-01T00:46:37;-5.60;99.90
2300;DHT22;1158;48.750;9.078;2023-03-01T00:49:04;-5.60;99.90
2300;DHT22;1158;48.750;9.078;2023-03-01T00:51:31;-5.60;99.90
2300;DHT22;1158;48.750;9.078;2023-03-01T00:53:59;-5.60;99.90
2300;DHT22;1158;48.750;9.078;2023-03-01T00:56:27;-5.60;99.90
2300;DHT22;1158;48.750;9.078;2023-03-01T00:58:55;-5.60;99.90
2300;DHT22;1158;48.750;9.078;2023-03-01T01:01:25;-5.60;99.90
2300;DHT22;1158;48.750;9.078;2023-03-01T01:03:54;-5.60;99.90
2300;DHT22;1158;48.750;9.078;2023-03-01T01:06:23;-5.60;99.90
2300;DHT22;1158;48.750;9.078;2023-03-01T01:08:51;-5.70;99.90
2300;DHT22;1158;48.750;9.078;2023-03-01T01:11:18;-5.70;99.90
2300;DHT22;1158;48.750;9.078;2023-03-01T01:13:47;-5.70;99.90
2300;DHT22;1158;48.750;9.078;2023-03-01T01:16:14;-5.70;99.90
2300;DHT22;1158;48.750;9.078;2023-03-01T01:18:43;-5.70;99.90
2300;DHT22;1158;48.750;9.078;2023-03-01T01:21:12;-5.70;99.90
2300;DHT22;1158;48.750;9.078;2023-03-01T01:23:40;-5.70;99.90
2300;DHT22;1158;48.750;9.078;2023-03-01T01:26:10;-5.70;99.90
2300;DHT22;1158;48.750;9.078;2023-03-01T01:28:36;-5.80;99.90
2300;DHT22;1158;48.750;9.078;2023-03-01T01:31:04;-5.70;99.90
2300;DHT22;1158;48.750;9.078;2023-03-01T01:33:31;-5.80;99.90
2300;DHT22;1158;48.750;9.078;2023-03-01T01:35:59;-5.70;99.90
2300;DHT22;1158;48.750;9.078;2023-03-01T01:38:26;-5.80;99.90
2300;DHT22;1158;48.750;9.078;2023-03-01T01:40:52;-5.80;99.90
2300;DHT22;1158;48.750;9.078;2023-03-01T01:43:22;-5.80;99.90
2300;DHT22;1158;48.750;9.078;2023-03-01T01:45:50;-5.90;99.90
2300;DHT22;1158;48.750;9.078;2023-03-01T01:48:19;-5.90;99.90
2300;DHT22;1158;48.750;9.078;2023-03-01T01:50:54;-5.90;99.90
2300;DHT22;1158;48.750;9.078;2023-03-01T01:53:24;-5.90;99.90
2300;DHT22;1158;48.750;9.078;2023-03-01T01:55:54;-5.90;99.90
2300;DHT22;1158;48.750;9.078;2023-03-01T01:58:24;-5.90;99.90
2300;DHT22;1158;48.750;9.078;2023-03-01T02:00:53;-5.90;99.90
2300;DHT22;1158;48.750;9.078;2023-03-01T02:03:24;-5.90;99.90
2300;DHT22;1158;48.750;9.078;2023-03-01T02:05:58;-5.90;99.90
2300;DHT22;1158;48.750;9.078;2023-03-01T02:08:30;-5.90;99.90
2300;DHT22;1158;48.750;9.078;2023-03-01T02:10:58;-5.90;99.90
2300;DHT22;1158;48.750;9.078;2023-03-01T02:13:26;-5.70;99.90
2300;DHT22;1158;48.750;9.078;2023-03-01T02:15:53;-5.60;99.90
2300;DHT22;1158;48.750;9.078;2023-03-01T02:18:21;-5.50;99.90
2300;DHT22;1158;48.750;9.078;2023-03-01T02:21:03;-5.30;99.90
2300;DHT22;1158;48.750;9.078;2023-03-01T02:23:33;-5.20;99.90
2300;DHT22;1158;48.750;9.078;2023-03-01T02:26:06;-5.20;99.90
2300;DHT22;1158;48.750;9.078;2023-03-01T02:28:36;-5.10;99.90
2300;DHT22;1158;48.750;9.078;2023-03-01T02:31:05;-5.00;99.90
2300;DHT22;1158;48.750;9.078;2023-03-01T02:33:51;-4.90;99.90
2300;DHT22;1158;48.750;9.078;2023-03-01T02:36:20;-4.80;99.90
2300;DHT22;1158;48.750;9.078;2023-03-01T02:38:51;-4.80;99.90
2300;DHT22;1158;48.750;9.078;2023-03-01T02:41:19;-4.60;99.90
2300;DHT22;1158;48.750;9.078;2023-03-01T02:43:47;-4.60;99.90
2300;DHT22;1158;48.750;9.078;2023-03-01T02:46:16;-4.50;99.90
2300;DHT22;1158;48.750;9.078;2023-03-01T02:48:45;-4.50;99.90
2300;DHT22;1158;48.750;9.078;2023-03-01T02:51:42;-4.40;99.90
2300;DHT22;1158;48.750;9.078;2023-03-01T02:54:15;-4.40;99.90
2300;DHT22;1158;48.750;9.078;2023-03-01T02:56:44;-4.30;99.90
2300;DHT22;1158;48.750;9.078;2023-03-01T02:59:16;-4.30;99.90
2300;DHT22;1158;48.750;9.078;2023-03-01T03:01:43;-4.30;99.90
2300;DHT22;1158;48.750;9.078;2023-03-01T03:04:11;-4.20;99.90
2300;DHT22;1158;48.750;9.078;2023-03-01T03:06:43;-4.20;99.90
2300;DHT22;1158;48.750;9.078;2023-03-01T03:09:10;-4.10;99.90
2300;DHT22;1158;48.750;9.078;2023-03-01T03:11:37;-4.10;99.90
2300;DHT22;1158;48.750;9.078;2023-03-01T03:14:04;-4.10;99.90
2300;DHT22;1158;48.750;9.078;2023-03-01T03:16:39;-4.10;99.90
2300;DHT22;1158;48.750;9.078;2023-03-01T03:19:06;-4.00;99.90
2300;DHT22;1158;48.750;9.078;2023-03-01T03:21:33;-3.90;99.90
2300;DHT22;1158;48.750;9.078;2023-03-01T03:24:00;-3.90;99.90
2300;DHT22;1158;48.750;9.078;2023-03-01T03:26:27;-3.80;99.90
2300;DHT22;1158;48.750;9.078;2023-03-01T03:28:54;-3.80;99.90
2300;DHT22;1158;48.750;9.078;2023-03-01T03:31:21;-3.80;99.90
2300;DHT22;1158;48.750;9.078;2023-03-01T03:33:49;-3.70;99.90
2300;DHT22;1158;48.750;9.078;2023-03-01T03:36:16;-3.60;99.90
2300;DHT22;1158;48.750;9.078;2023-03-01T03:38:43;-3.60;99.90
2300;DHT22;1158;48.750;9.078;2023-03-01T03:41:10;-3.60;99.90
2300;DHT22;1158;48.750;9.078;2023-03-01T03:43:38;-3.50;99.90
2300;DHT22;1158;48.750;9.078;2023-03-01T03:46:05;-3.50;99.90
2300;DHT22;1158;48.750;9.078;2023-03-01T03:48:33;-3.50;99.90
2300;DHT22;1158;48.750;9.078;2023-03-01T03:51:01;-3.50;99.90
2300;DHT22;1158;48.750;9.078;2023-03-01T03:53:31;-3.50;99.90
2300;DHT22;1158;48.750;9.078;2023-03-01T03:55:57;-3.50;99.90
2300;DHT22;1158;48.750;9.078;2023-03-01T03:58:25;-3.40;99.90
2300;DHT22;1158;48.750;9.078;2023-03-01T04:00:55;-3.30;99.90
2300;DHT22;1158;48.750;9.078;2023-03-01T04:03:23;-3.30;99.90
2300;DHT22;1158;48.750;9.078;2023-03-01T04:05:50;-3.20;99.90
2300;DHT22;1158;48.750;9.078;2023-03-01T04:08:19;-3.20;99.90
2300;DHT22;1158;48.750;9.078;2023-03-01T04:10:50;-3.20;99.90
2300;DHT22;1158;48.750;9.078;2023-03-01T04:13:20;-3.10;99.90
2300;DHT22;1158;48.750;9.078;2023-03-01T04:15:48;-3.10;99.90
2300;DHT22;1158;48.750;9.078;2023-03-01T04:18:16;-3.10;99.90
2300;DHT22;1158;48.750;9.078;2023-03-01T04:20:43;-3.10;99.90
2300;DHT22;1158;48.750;9.078;2023-03-01T04:23:13;-3.00;99.90
2300;DHT22;1158;48.750;9.078;2023-03-01T04:25:45;-3.00;99.90
2300;DHT22;1158;48.750;9.078;2023-03-01T04:28:15;-3.00;99.90
2300;DHT22;1158;48.750;9.078;2023-03-01T04:30:42;-2.90;99.90
2300;DHT22;1158;48.750;9.078;2023-03-01T04:33:09;-2.80;99.90
2300;DHT22;1158;48.750;9.078;2023-03-01T04:35:37;-2.80;99.90
2300;DHT22;1158;48.750;9.078;2023-03-01T04:38:04;-2.80;99.90
2300;DHT22;1158;48.750;9.078;2023-03-01T04:40:31;-2.70;99.90
2300;DHT22;1158;48.750;9.078;2023-03-01T04:43:00;-2.70;99.90
2300;DHT22;1158;48.750;9.078;2023-03-01T04:45:26;-2.80;99.90
2300;DHT22;1158;48.750;9.078;2023-03-01T04:47:53;-2.80;99.90
2300;DHT22;1158;48.750;9.078;2023-03-01T04:50:20;-2.80;99.90
2300;DHT22;1158;48.750;9.078;2023-03-01T04:52:49;-2.80;99.90
2300;DHT22;1158;48.750;9.078;2023-03-01T04:55:16;-2.70;99.90
2300;DHT22;1158;48.750;9.078;2023-03-01T04:57:42;-2.70;99.90
2300;DHT22;1158;48.750;9.078;2023-03-01T05:00:13;-2.60;99.90
2300;DHT22;1158;48.750;9.078;2023-03-01T05:02:51;-2.60;99.90
2300;DHT22;1158;48.750;9.078;2023-03-01T05:05:21;-2.60;99.90
2300;DHT22;1158;48.750;9.078;2023-03-01T05:07:51;-2.50;99.90
2300;DHT22;1158;48.750;9.078;2023-03-01T05:10:18;-2.50;99.90
2300;DHT22;1158;48.750;9.078;2023-03-01T05:12:45;-2.50;99.90
2300;DHT22;1158;48.750;9.078;2023-03-01T05:15:13;-2.50;99.90
2300;DHT22;1158;48.750;9.078;2023-03-01T05:17:40;-2.50;99.90
2300;DHT22;1158;48.750;9.078;2023-03-01T05:20:08;-2.60;99.90
2300;DHT22;1158;48.750;9.078;2023-03-01T05:22:36;-2.60;99.90
2300;DHT22;1158;48.750;9.078;2023-03-01T05:25:04;-2.50;99.90
2300;DHT22;1158;48.750;9.078;2023-03-01T05:27:32;-2.50;99.90
2300;DHT22;1158;48.750;9.078;2023-03-01T05:29:58;-2.40;99.90
2300;DHT22;1158;48.750;9.078;2023-03-01T05:32:40;-2.40;99.90
2300;DHT22;1158;48.750;9.078;2023-03-01T05:35:08;-2.30;99.90
2300;DHT22;1158;48.750;9.078;2023-03-01T05:37:39;-2.20;99.90
2300;DHT22;1158;48.750;9.078;2023-03-01T05:40:06;-2.20;99.90
2300;DHT22;1158;48.750;9.078;2023-03-01T05:42:44;-2.10;99.90
2300;DHT22;1158;48.750;9.078;2023-03-01T05:45:11;-2.10;99.90
2300;DHT22;1158;48.750;9.078;2023-03-01T05:47:40;-2.00;99.90
2300;DHT22;1158;48.750;9.078;2023-03-01T05:50:11;-2.00;99.90
2300;DHT22;1158;48.750;9.078;2023-03-01T05:52:38;-1.90;99.90
2300;DHT22;1158;48.750;9.078;2023-03-01T05:55:06;-1.90;99.90
2300;DHT22;1158;48.750;9.078;2023-03-01T05:57:33;-1.90;99.90
2300;DHT22;1158;48.750;9.078;2023-03-01T06:00:00;-1.90;99.90
2300;DHT22;1158;48.750;9.078;2023-03-01T06:02:27;-1.90;99.90
2300;DHT22;1158;48.750;9.078;2023-03-01T06:04:55;-1.90;99.90
2300;DHT22;1158;48.750;9.078;2023-03-01T06:07:22;-1.80;99.90
2300;DHT22;1158;48.750;9.078;2023-03-01T06:09:49;-1.80;99.90
2300;DHT22;1158;48.750;9.078;2023-03-01T06:12:16;-1.80;99.90
2300;DHT22;1158;48.750;9.078;2023-03-01T06:14:43;-1.70;99.90
2300;DHT22;1158;48.750;9.078;2023-03-01T06:17:09;-1.70;99.90
2300;DHT22;1158;48.750;9.078;2023-03-01T06:19:36;-1.70;99.90
2300;DHT22;1158;48.750;9.078;2023-03-01T06:22:04;-1.70;99.90
2300;DHT22;1158;48.750;9.078;2023-03-01T06:24:31;-1.70;99.90
2300;DHT22;1158;48.750;9.078;2023-03-01T06:26:58;-1.60;99.90
2300;DHT22;1158;48.750;9.078;2023-03-01T06:29:25;-1.60;99.90
2300;DHT22;1158;48.750;9.078;2023-03-01T06:31:52;-1.60;99.90
2300;DHT22;1158;48.750;9.078;2023-03-01T06:34:19;-1.60;99.90
2300;DHT22;1158;48.750;9.078;2023-03-01T06:36:47;-1.50;99.90
2300;DHT22;1158;48.750;9.078;2023-03-01T06:39:15;-1.50;99.90
2300;DHT22;1158;48.750;9.078;2023-03-01T06:41:43;-1.50;99.90
2300;DHT22;1158;48.750;9.078;2023-03-01T06:44:09;-1.50;99.90
2300;DHT22;1158;48.750;9.078;2023-03-01T06:46:36;-1.40;99.90
2300;DHT22;1158;48.750;9.078;2023-03-01T06:49:03;-1.40;99.90
2300;DHT22;1158;48.750;9.078;2023-03-01T06:51:29;-1.40;99.90
2300;DHT22;1158;48.750;9.078;2023-03-01T06:53:56;-1.30;99.90
2300;DHT22;1158;48.750;9.078;2023-03-01T06:56:24;-1.30;99.90
2300;DHT22;1158;48.750;9.078;2023-03-01T06:58:51;-1.30;99.90
2300;DHT22;1158;48.750;9.078;2023-03-01T07:01:17;-1.20;99.90
2300;DHT22;1158;48.750;9.078;2023-03-01T07:03:44;-1.20;99.90
2300;DHT22;1158;48.750;9.078;2023-03-01T07:06:11;-1.10;99.90
2300;DHT22;1158;48.750;9.078;2023-03-01T07:08:38;-1.00;99.90
2300;DHT22;1158;48.750;9.078;2023-03-01T07:11:04;-0.80;99.90
2300;DHT22;1158;48.750;9.078;2023-03-01T07:13:33;-0.30;99.90
2300;DHT22;1158;48.750;9.078;2023-03-01T07:15:59;0.10;99.90
2300;DHT22;1158;48.750;9.078;2023-03-01T07:18:26;0.40;99.90
2300;DHT22;1158;48.750;9.078;2023-03-01T07:20:53;0.80;99.90
2300;DHT22;1158;48.750;9.078;2023-03-01T07:23:20;1.20;99.90
2300;DHT22;1158;48.750;9.078;2023-03-01T07:25:51;1.40;99.90
2300;DHT22;1158;48.750;9.078;2023-03-01T07:28:18;2.20;99.90
2300;DHT22;1158;48.750;9.078;2023-03-01T07:30:46;2.90;99.90
2300;DHT22;1158;48.750;9.078;2023-03-01T07:33:13;3.80;99.90
2300;DHT22;1158;48.750;9.078;2023-03-01T07:35:40;4.50;99.90
2300;DHT22;1158;48.750;9.078;2023-03-01T07:38:06;4.80;99.90
2300;DHT22;1158;48.750;9.078;2023-03-01T07:40:33;5.40;98.90
2300;DHT22;1158;48.750;9.078;2023-03-01T07:43:00;5.80;98.00
2300;DHT22;1158;48.750;9.078;2023-03-01T07:45:28;6.00;97.30
2300;DHT22;1158;48.750;9.078;2023-03-01T07:47:56;6.10;96.50
2300;DHT22;1158;48.750;9.078;2023-03-01T07:50:23;6.70;95.70
2300;DHT22;1158;48.750;9.078;2023-03-01T07:52:49;6.80;94.90
2300;DHT22;1158;48.750;9.078;2023-03-01T07:55:16;6.40;95.30
2300;DHT22;1158;48.750;9.078;2023-03-01T07:57:44;7.30;94.80
2300;DHT22;1158;48.750;9.078;2023-03-01T08:00:12;8.00;93.40
2300;DHT22;1158;48.750;9.078;2023-03-01T08:02:39;8.30;92.50
2300;DHT22;1158;48.750;9.078;2023-03-01T08:05:09;8.10;91.60
2300;DHT22;1158;48.750;9.078;2023-03-01T08:07:35;7.60;91.60
2300;DHT22;1158;48.750;9.078;2023-03-01T08:10:02;7.50;92.50
2300;DHT22;1158;48.750;9.078;2023-03-01T08:12:29;8.00;92.20
2300;DHT22;1158;48.750;9.078;2023-03-01T08:14:56;8.10;91.50
2300;DHT22;1158;48.750;9.078;2023-03-01T08:17:23;8.50;91.30
2300;DHT22;1158;48.750;9.078;2023-03-01T08:19:50;9.00;90.30
2300;DHT22;1158;48.750;9.078;2023-03-01T08:22:18;8.50;90.50
2300;DHT22;1158;48.750;9.078;2023-03-01T08:24:44;9.10;90.30
2300;DHT22;1158;48.750;9.078;2023-03-01T08:27:11;9.50;88.10
2300;DHT22;1158;48.750;9.078;2023-03-01T08:29:38;9.10;89.20
2300;DHT22;1158;48.750;9.078;2023-03-01T08:32:05;9.20;88.90
2300;DHT22;1158;48.750;9.078;2023-03-01T08:34:32;8.80;89.50
2300;DHT22;1158;48.750;9.078;2023-03-01T08:37:01;9.70;88.50
2300;DHT22;1158;48.750;9.078;2023-03-01T08:39:29;10.00;85.90
2300;DHT22;1158;48.750;9.078;2023-03-01T08:41:56;10.60;86.20
2300;DHT22;1158;48.750;9.078;2023-03-01T08:44:23;10.80;83.20
2300;DHT22;1158;48.750;9.078;2023-03-01T08:46:50;10.70;82.10
2300;DHT22;1158;48.750;9.078;2023-03-01T08:49:19;9.90;83.40
2300;DHT22;1158;48.750;9.078;2023-03-01T08:51:47;9.70;84.10
2300;DHT22;1158;48.750;9.078;2023-03-01T08:54:15;9.80;84.30
2300;DHT22;1158;48.750;9.078;2023-03-01T08:56:45;9.50;85.20
2300;DHT22;1158;48.750;9.078;2023-03-01T08:59:13;10.60;82.70
2300;DHT22;1158;48.750;9.078;2023-03-01T09:01:40;9.60;83.70
2300;DHT22;1158;48.750;9.078;2023-03-01T09:04:08;9.90;83.60
2300;DHT22;1158;48.750;9.078;2023-03-01T09:06:35;9.30;83.70
2300;DHT22;1158;48.750;9.078;2023-03-01T09:09:03;9.80;84.00
2300;DHT22;1158;48.750;9.078;2023-03-01T09:11:30;9.40;84.90
2300;DHT22;1158;48.750;9.078;2023-03-01T09:13:59;8.70;86.20
2300;DHT22;1158;48.750;9.078;2023-03-01T09:16:26;9.40;84.70
2300;DHT22;1158;48.750;9.078;2023-03-01T09:18:55;8.90;84.20
2300;DHT22;1158;48.750;9.078;2023-03-01T09:21:23;8.60;84.60
2300;DHT22;1158;48.750;9.078;2023-03-01T09:23:50;8.90;85.80
2300;DHT22;1158;48.750;9.078;2023-03-01T09:26:18;8.70;85.60
2300;DHT22;1158;48.750;9.078;2023-03-01T09:28:46;9.60;84.40
2300;DHT22;1158;48.750;9.078;2023-03-01T09:31:16;10.30;82.00
2300;DHT22;1158;48.750;9.078;2023-03-01T09:33:45;10.60;81.10
2300;DHT22;1158;48.750;9.078;2023-03-01T09:36:13;9.70;83.00
2300;DHT22;1158;48.750;9.078;2023-03-01T09:38:40;9.20;82.70
2300;DHT22;1158;48.750;9.078;2023-03-01T09:41:11;8.30;84.70
2300;DHT22;1158;48.750;9.078;2023-03-01T09:43:51;8.60;85.20
2300;DHT22;1158;48.750;9.078;2023-03-01T09:46:22;9.20;85.00
2300;DHT22;1158;48.750;9.078;2023-03-01T09:48:52;8.90;83.30
2300;DHT22;1158;48.750;9.078;2023-03-01T09:51:26;9.30;83.60
2300;DHT22;1158;48.750;9.078;2023-03-01T09:53:53;9.50;84.80
2300;DHT22;1158;48.750;9.078;2023-03-01T09:56:26;10.10;81.80
2300;DHT22;1158;48.750;9.078;2023-03-01T09:59:01;10.40;80.30
2300;DHT22;1158;48.750;9.078;2023-03-01T10:01:39;10.80;80.30
2300;DHT22;1158;48.750;9.078;2023-03-01T10:04:26;10.90;79.30
2300;DHT22;1158;48.750;9.078;2023-03-01T10:07:02;11.40;79.70
2300;DHT22;1158;48.750;9.078;2023-03-01T10:09:34;10.90;78.60
2300;DHT22;1158;48.750;9.078;2023-03-01T10:12:02;11.30;79.10
2300;DHT22;1158;48.750;9.078;2023-03-01T10:14:35;11.10;79.00
2300;DHT22;1158;48.750;9.078;2023-03-01T10:17:08;10.60;78.90
2300;DHT22;1158;48.750;9.078;2023-03-01T10:19:39;10.90;78.90
2300;DHT22;1158;48.750;9.078;2023-03-01T10:22:13;10.70;79.30
2300;DHT22;1158;48.750;9.078;2023-03-01T10:24:40;10.70;78.90
2300;DHT22;1158;48.750;9.078;2023-03-01T10:27:11;10.40;79.50
2300;DHT22;1158;48.750;9.078;2023-03-01T10:29:48;10.20;79.00
2300;DHT22;1158;48.750;9.078;2023-03-01T10:32:17;9.70;81.50
2300;DHT22;1158;48.750;9.078;2023-03-01T10:34:44;10.40;80.00
2300;DHT22;1158;48.750;9.078;2023-03-01T10:37:13;10.50;79.40
2300;DHT22;1158;48.750;9.078;2023-03-01T10:39:57;10.80;78.60
2300;DHT22;1158;48.750;9.078;2023-03-01T10:42:29;10.50;77.50
2300;DHT22;1158;48.750;9.078;2023-03-01T10:44:56;10.00;79.10
2300;DHT22;1158;48.750;9.078;2023-03-01T10:47:26;10.50;78.50
2300;DHT22;1158;48.750;9.078;2023-03-01T10:49:59;10.20;79.30
2300;DHT22;1158;48.750;9.078;2023-03-01T10:52:29;10.10;79.80
2300;DHT22;1158;48.750;9.078;2023-03-01T10:54:58;10.00;79.80
2300;DHT22;1158;48.750;9.078;2023-03-01T10:57:35;9.90;80.10
2300;DHT22;1158;48.750;9.078;2023-03-01T11:00:24;9.60;82.00
2300;DHT22;1158;48.750;9.078;2023-03-01T11:03:04;10.10;79.50
2300;DHT22;1158;48.750;9.078;2023-03-01T11:05:36;9.70;80.50
2300;DHT22;1158;48.750;9.078;2023-03-01T11:08:03;10.20;78.40
2300;DHT22;1158;48.750;9.078;2023-03-01T11:10:31;10.60;78.30
2300;DHT22;1158;48.750;9.078;2023-03-01T11:13:14;10.50;79.00
2300;DHT22;1158;48.750;9.078;2023-03-01T11:15:42;10.90;77.80
2300;DHT22;1158;48.750;9.078;2023-03-01T11:18:21;10.20;78.60
2300;DHT22;1158;48.750;9.078;2023-03-01T11:20:51;11.70;82.80
2300;DHT22;1158;48.750;9.078;2023-03-01T11:23:18;12.70;81.80
2300;DHT22;1158;48.750;9.078;2023-03-01T11:25:49;13.00;76.70
2300;DHT22;1158;48.750;9.078;2023-03-01T11:28:19;11.00;76.00
2300;DHT22;1158;48.750;9.078;2023-03-01T11:30:51;10.60;78.70
2300;DHT22;1158;48.750;9.078;2023-03-01T11:33:33;11.20;79.60
2300;DHT22;1158;48.750;9.078;2023-03-01T11:36:05;11.60;78.80
2300;DHT22;1158;48.750;9.078;2023-03-01T11:38:35;11.70;76.20
2300;DHT22;1158;48.750;9.078;2023-03-01T11:41:06;10.60;75.90
2300;DHT22;1158;48.750;9.078;2023-03-01T11:43:40;10.40;78.30
2300;DHT22;1158;48.750;9.078;2023-03-01T11:46:35;10.20;78.40
2300;DHT22;1158;48.750;9.078;2023-03-01T11:49:22;10.60;78.10
2300;DHT22;1158;48.750;9.078;2023-03-01T11:51:57;10.90;77.90
2300;DHT22;1158;48.750;9.078;2023-03-01T11:54:33;11.10;78.00
2300;DHT22;1158;48.750;9.078;2023-03-01T11:57:11;11.20;77.10
2300;DHT22;1158;48.750;9.078;2023-03-01T12:00:03;10.30;77.80
2300;DHT22;1158;48.750;9.078;2023-03-01T12:08:58;10.70;78.70
2300;DHT22;1158;48.750;9.078;2023-03-01T12:11:39;10.80;77.80
2300;DHT22;1158;48.750;9.078;2023-03-01T12:14:22;10.70;78.10
2300;DHT22;1158;48.750;9.078;2023-03-01T12:17:08;10.50;77.20
2300;DHT22;1158;48.750;9.078;2023-03-01T12:22:46;10.60;79.30
2300;DHT22;1158;48.750;9.078;2023-03-01T12:25:25;11.00;78.20
2300;DHT22;1158;48.750;9.078;2023-03-01T12:31:09;11.00;78.10
2300;DHT22;1158;48.750;9.078;2023-03-01T12:33:45;11.10;77.90
2300;DHT22;1158;48.750;9.078;2023-03-01T12:36:36;11.00;77.20
2300;DHT22;1158;48.750;9.078;2023-03-01T12:39:17;10.80;78.60
2300;DHT22;1158;48.750;9.078;2023-03-01T12:41:56;11.40;77.80
2300;DHT22;1158;48.750;9.078;2023-03-01T12:44:42;11.40;77.40
2300;DHT22;1158;48.750;9.078;2023-03-01T12:47:20;11.20;76.30
2300;DHT22;1158;48.750;9.078;2023-03-01T12:49:52;11.50;77.20
2300;DHT22;1158;48.750;9.078;2023-03-01T12:52:24;11.70;76.80
2300;DHT22;1158;48.750;9.078;2023-03-01T12:54:57;11.70;77.10
2300;DHT22;1158;48.750;9.078;2023-03-01T12:57:29;11.80;77.20
2300;DHT22;1158;48.750;9.078;2023-03-01T13:00:10;12.10;75.60
2300;DHT22;1158;48.750;9.078;2023-03-01T13:02:47;12.40;76.00
2300;DHT22;1158;48.750;9.078;2023-03-01T13:05:30;12.20;75.10
2300;DHT22;1158;48.750;9.078;2023-03-01T13:08:07;11.90;75.30
2300;DHT22;1158;48.750;9.078;2023-03-01T13:10:43;11.80;76.30
2300;DHT22;1158;48.750;9.078;2023-03-01T13:13:21;12.10;76.10
2300;DHT22;1158;48.750;9.078;2023-03-01T13:15:48;12.70;75.70
2300;DHT22;1158;48.750;9.078;2023-03-01T13:18:31;12.30;75.30
2300;DHT22;1158;48.750;9.078;2023-03-01T13:21:02;12.10;75.50
2300;DHT22;1158;48.750;9.078;2023-03-01T13:23:34;12.30;76.20
2300;DHT22;1158;48.750;9.078;2023-03-01T13:26:08;12.50;75.00
2300;DHT22;1158;48.750;9.078;2023-03-01T13:28:50;12.60;75.30
2300;DHT22;1158;48.750;9.078;2023-03-01T13:34:57;12.20;75.70
2300;DHT22;1158;48.750;9.078;2023-03-01T13:37:31;12.40;75.00
2300;DHT22;1158;48.750;9.078;2023-03-01T13:40:02;12.40;75.70
2300;DHT22;1158;48.750;9.078;2023-03-01T13:42:42;13.10;74.40
2300;DHT22;1158;48.750;9.078;2023-03-01T13:45:22;13.40;73.80
2300;DHT22;1158;48.750;9.078;2023-03-01T13:47:54;13.30;73.90
2300;DHT22;1158;48.750;9.078;2023-03-01T13:50:25;12.50;73.40
2300;DHT22;1158;48.750;9.078;2023-03-01T13:52:56;12.70;74.50
2300;DHT22;1158;48.750;9.078;2023-03-01T13:55:30;12.90;73.80
2300;DHT22;1158;48.750;9.078;2023-03-01T13:58:00;12.70;74.40
2300;DHT22;1158;48.750;9.078;2023-03-01T14:00:33;12.90;74.60
2300;DHT22;1158;48.750;9.078;2023-03-01T14:03:05;13.30;74.00
2300;DHT22;1158;48.750;9.078;2023-03-01T14:05:34;13.10;73.80
2300;DHT22;1158;48.750;9.078;2023-03-01T14:08:02;13.20;73.90
2300;DHT22;1158;48.750;9.078;2023-03-01T14:10:36;12.70;73.20
2300;DHT22;1158;48.750;9.078;2023-03-01T14:13:18;12.60;75.20
2300;DHT22;1158;48.750;9.078;2023-03-01T14:15:54;13.10;74.30
2300;DHT22;1158;48.750;9.078;2023-03-01T14:18:31;13.00;75.00
2300;DHT22;1158;48.750;9.078;2023-03-01T14:21:07;13.60;73.20
2300;DHT22;1158;48.750;9.078;2023-03-01T14:23:34;13.90;74.10
2300;DHT22;1158;48.750;9.078;2023-03-01T14:26:04;14.20;73.00
2300;DHT22;1158;48.750;9.078;2023-03-01T14:28:32;13.90;72.80
2300;DHT22;1158;48.750;9.078;2023-03-01T14:31:35;14.00;72.90
2300;DHT22;1158;48.750;9.078;2023-03-01T14:34:02;14.40;71.90
2300;DHT22;1158;48.750;9.078;2023-03-01T14:36:30;14.40;71.30
2300;DHT22;1158;48.750;9.078;2023-03-01T14:38:57;13.50;71.50
2300;DHT22;1158;48.750;9.078;2023-03-01T14:41:32;13.10;73.50
2300;DHT22;1158;48.750;9.078;2023-03-01T14:44:01;13.10;72.70
2300;DHT22;1158;48.750;9.078;2023-03-01T14:46:32;13.20;74.60
2300;DHT22;1158;48.750;9.078;2023-03-01T14:49:02;13.60;73.40
2300;DHT22;1158;48.750;9.078;2023-03-01T14:51:29;13.40;73.10
2300;DHT22;1158;48.750;9.078;2023-03-01T14:53:56;14.10;73.20
2300;DHT22;1158;48.750;9.078;2023-03-01T14:56:23;13.50;71.80
2300;DHT22;1158;48.750;9.078;2023-03-01T14:58:53;14.00;73.80
2300;DHT22;1158;48.750;9.078;2023-03-01T15:01:24;14.40;72.70
2300;DHT22;1158;48.750;9.078;2023-03-01T15:03:52;13.80;73.20
2300;DHT22;1158;48.750;9.078;2023-03-01T15:06:22;13.90;73.50
2300;DHT22;1158;48.750;9.078;2023-03-01T15:08:51;14.20;72.90
2300;DHT22;1158;48.750;9.078;2023-03-01T15:11:21;14.00;73.40
2300;DHT22;1158;48.750;9.078;2023-03-01T15:13:50;14.40;71.80
2300;DHT22;1158;48.750;9.078;2023-03-01T15:16:19;14.20;72.00
2300;DHT22;1158;48.750;9.078;2023-03-01T15:18:47;13.20;72.50
2300;DHT22;1158;48.750;9.078;2023-03-01T15:21:18;12.90;74.50
2300;DHT22;1158;48.750;9.078;2023-03-01T15:23:50;12.90;74.50
2300;DHT22;1158;48.750;9.078;2023-03-01T15:26:23;12.40;74.60
2300;DHT22;1158;48.750;9.078;2023-03-01T15:28:52;12.30;74.90
2300;DHT22;1158;48.750;9.078;2023-03-01T15:31:25;11.70;76.50
2300;DHT22;1158;48.750;9.078;2023-03-01T15:33:52;11.70;75.90
2300;DHT22;1158;48.750;9.078;2023-03-01T15:36:33;12.00;75.80
2300;DHT22;1158;48.750;9.078;2023-03-01T15:39:03;11.70;76.30
2300;DHT22;1158;48.750;9.078;2023-03-01T15:41:36;11.80;76.20
2300;DHT22;1158;48.750;9.078;2023-03-01T15:44:15;12.00;76.00
2300;DHT22;1158;48.750;9.078;2023-03-01T15:46:46;11.30;76.70
2300;DHT22;1158;48.750;9.078;2023-03-01T15:49:26;11.30;77.50
2300;DHT22;1158;48.750;9.078;2023-03-01T15:51:55;11.60;76.80
2300;DHT22;1158;48.750;9.078;2023-03-01T15:54:24;11.90;75.70
2300;DHT22;1158;48.750;9.078;2023-03-01T15:56:51;11.70;76.20
2300;DHT22;1158;48.750;9.078;2023-03-01T15:59:19;11.30;76.30
2300;DHT22;1158;48.750;9.078;2023-03-01T16:01:48;11.00;76.90
2300;DHT22;1158;48.750;9.078;2023-03-01T16:04:16;11.10;76.90
2300;DHT22;1158;48.750;9.078;2023-03-01T16:06:48;11.00;76.70
2300;DHT22;1158;48.750;9.078;2023-03-01T16:09:21;11.20;76.80
2300;DHT22;1158;48.750;9.078;2023-03-01T16:11:48;11.20;76.50
2300;DHT22;1158;48.750;9.078;2023-03-01T16:14:15;10.00;77.70
2300;DHT22;1158;48.750;9.078;2023-03-01T16:16:42;9.90;80.00
2300;DHT22;1158;48.750;9.078;2023-03-01T16:19:09;9.50;80.60
2300;DHT22;1158;48.750;9.078;2023-03-01T16:21:36;9.00;81.60
2300;DHT22;1158;48.750;9.078;2023-03-01T16:24:04;8.20;83.10
2300;DHT22;1158;48.750;9.078;2023-03-01T16:26:32;7.50;84.50
2300;DHT22;1158;48.750;9.078;2023-03-01T16:28:59;7.30;85.50
2300;DHT22;1158;48.750;9.078;2023-03-01T16:31:26;7.20;86.80
2300;DHT22;1158;48.750;9.078;2023-03-01T16:33:54;7.00;86.40
2300;DHT22;1158;48.750;9.078;2023-03-01T16:36:22;6.80;87.00
2300;DHT22;1158;48.750;9.078;2023-03-01T16:38:50;6.50;87.90